Time;durP1;ratioP1;P1;durP2;ratioP2;P2;SDS_P1;SDS_P2;PMS_P1;PMS_P2;Temp;Humidity;BMP_temperature;BMP_pressure;BME280_temperature;BME280_humidity;BME280_pressure;Samples;Min_cycle;Max_cycle;Signal;HPM_P1;HPM_P2
2023/09/16 00:01:08;;;;;;;0.35;0.35;;;;;;;;;;6184239;23;20418;-69
2023/09/16 00:03:35;;;;;;;0.82;0.40;;;;;;;;;;6184658;23;20076;-69
2023/09/16 00:06:02;;;;;;;0.25;0.25;;;;;;;;;;6184282;23;20075;-69
2023/09/16 00:08:28;;;;;;;0.50;0.45;;;;;;;;;;6184288;23;20056;-68
2023/09/16 00:10:54;;;;;;;1.45;0.32;;;;;;;;;;6184387;23;20077;-69
2023/09/16 00:13:21;;;;;;;2.30;0.55;;;;;;;;;;6183857;23;20077;-69
2023/09/16 00:15:48;;;;;;;2.40;0.52;;;;;;;;;;6184261;23;20404;-69
2023/09/16 00:18:16;;;;;;;2.65;0.60;;;;;;;;;;6184628;23;20084;-69
2023/09/16 00:20:43;;;;;;;1.08;0.50;;;;;;;;;;6184146;23;20082;-69
2023/09/16 00:23:10;;;;;;;0.55;0.30;;;;;;;;;;6184181;23;20068;-68
2023/09/16 00:25:36;;;;;;;0.50;0.30;;;;;;;;;;6184197;23;20096;-68
2023/09/16 00:28:06;;;;;;;0.20;0.20;;;;;;;;;;6157540;23;20139;-69
2023/09/16 00:30:35;;;;;;;0.47;0.45;;;;;;;;;;6184310;23;20076;-69
2023/09/16 00:33:03;;;;;;;2.78;0.35;;;;;;;;;;6184215;23;20072;-69
2023/09/16 00:35:29;;;;;;;1.00;0.30;;;;;;;;;;6157877;23;20092;-68
2023/09/16 00:37:56;;;;;;;0.68;0.30;;;;;;;;;;6184411;23;20072;-69
2023/09/16 00:40:22;;;;;;;1.48;0.50;;;;;;;;;;6184205;23;20507;-69
2023/09/16 00:42:48;;;;;;;0.57;0.40;;;;;;;;;;6185993;23;20064;-69
2023/09/16 00:45:15;;;;;;;1.75;0.30;;;;;;;;;;6185672;23;20503;-69
2023/09/16 00:47:42;;;;;;;0.55;0.40;;;;;;;;;;6186088;23;20068;-68
2023/09/16 00:50:08;;;;;;;1.80;0.70;;;;;;;;;;6185849;23;20076;-69
2023/09/16 00:52:37;;;;;;;0.60;0.50;;;;;;;;;;6185845;23;20072;-69
2023/09/16 00:55:04;;;;;;;1.17;0.40;;;;;;;;;;6185540;23;20072;-69
2023/09/16 00:57:32;;;;;;;2.03;0.60;;;;;;;;;;6185642;23;20088;-69
2023/09/16 00:59:58;;;;;;;0.88;0.60;;;;;;;;;;6185598;23;20079;-68
2023/09/16 01:02:27;;;;;;;0.98;0.40;;;;;;;;;;6134694;23;20081;-69
2023/09/16 01:04:54;;;;;;;0.80;0.40;;;;;;;;;;6185798;23;20084;-69
2023/09/16 01:07:21;;;;;;;1.02;0.50;;;;;;;;;;6185714;23;20077;-68
2023/09/16 01:09:48;;;;;;;1.27;0.90;;;;;;;;;;6185093;23;20092;-69
2023/09/16 01:12:14;;;;;;;1.00;0.60;;;;;;;;;;6185669;23;20072;-69
2023/09/16 01:14:40;;;;;;;1.38;0.90;;;;;;;;;;6185711;23;20088;-69
2023/09/16 01:17:11;;;;;;;0.70;0.70;;;;;;;;;;6185684;23;20388;-69
2023/09/16 01:19:56;;;;;;;0.82;0.82;;;;;;;;;;6185699;23;20072;-69
2023/09/16 01:22:23;;;;;;;4.15;0.80;;;;;;;;;;6185612;23;20072;-69
2023/09/16 01:24:53;;;;;;;2.30;0.80;;;;;;;;;;6184946;23;20132;-69
2023/09/16 01:27:22;;;;;;;0.95;0.95;;;;;;;;;;6185319;23;20530;-69
2023/09/16 01:29:50;;;;;;;1.42;0.90;;;;;;;;;;6185622;23;20080;-68
2023/09/16 01:32:18;;;;;;;5.38;0.90;;;;;;;;;;6185520;23;20075;-69
2023/09/16 01:34:49;;;;;;;0.77;0.70;;;;;;;;;;6185337;23;20080;-68
2023/09/16 01:37:20;;;;;;;4.18;0.82;;;;;;;;;;6185384;23;20076;-69
2023/09/16 01:39:46;;;;;;;;;;;;;;;;;;6159123;23;20075;-69
2023/09/16 01:42:13;;;;;;;4.97;0.90;;;;;;;;;;6185523;23;19979;-69
2023/09/16 01:44:39;;;;;;;1.20;0.70;;;;;;;;;;6185247;23;20076;-69
2023/09/16 01:47:07;;;;;;;2.80;1.00;;;;;;;;;;6185279;23;20085;-69
2023/09/16 01:49:33;;;;;;;4.07;0.90;;;;;;;;;;6185327;23;20076;-69
2023/09/16 01:52:00;;;;;;;1.30;0.77;;;;;;;;;;6185043;23;20072;-69
2023/09/16 01:54:26;;;;;;;2.15;0.70;;;;;;;;;;6184624;23;20076;-68
2023/09/16 01:56:52;;;;;;;2.20;1.08;;;;;;;;;;6185392;23;20377;-69
2023/09/16 01:59:18;;;;;;;3.40;0.98;;;;;;;;;;6185137;23;20104;-69
2023/09/16 02:01:46;;;;;;;5.68;0.93;;;;;;;;;;6184945;23;20019;-69
2023/09/16 02:04:13;;;;;;;2.22;0.93;;;;;;;;;;6185190;23;20080;-69
2023/09/16 02:06:41;;;;;;;1.15;0.70;;;;;;;;;;6185164;23;20119;-68
2023/09/16 02:09:07;;;;;;;2.15;0.88;;;;;;;;;;6184801;23;20072;-68
2023/09/16 02:11:33;;;;;;;2.00;0.88;;;;;;;;;;6185228;23;20072;-69
2023/09/16 02:14:01;;;;;;;1.35;1.00;;;;;;;;;;6184999;23;20543;-68
2023/09/16 02:16:27;;;;;;;2.17;1.00;;;;;;;;;;6185069;23;20072;-69
2023/09/16 02:18:54;;;;;;;2.60;1.00;;;;;;;;;;6185078;23;20495;-69
2023/09/16 02:21:22;;;;;;;2.15;1.08;;;;;;;;;;6184859;23;20083;-69
2023/09/16 02:23:48;;;;;;;1.23;0.80;;;;;;;;;;6184619;23;20092;-69
2023/09/16 02:26:15;;;;;;;5.60;0.82;;;;;;;;;;6185019;23;20088;-69
2023/09/16 02:28:41;;;;;;;1.40;1.05;;;;;;;;;;6184932;23;20071;-69
2023/09/16 02:31:10;;;;;;;3.03;0.90;;;;;;;;;;6184994;23;20499;-69
2023/09/16 02:33:37;;;;;;;1.98;1.10;;;;;;;;;;6184779;23;20076;-68
2023/09/16 02:36:05;;;;;;;1.42;0.82;;;;;;;;;;6184911;23;20393;-67
2023/09/16 02:38:32;;;;;;;1.90;0.93;;;;;;;;;;6184359;23;20488;-68
2023/09/16 02:40:58;;;;;;;2.85;1.10;;;;;;;;;;6184801;23;20080;-69
2023/09/16 02:43:24;;;;;;;2.63;0.98;;;;;;;;;;6184836;23;20080;-69
2023/09/16 02:45:51;;;;;;;3.35;1.00;;;;;;;;;;6184556;23;20080;-69
2023/09/16 02:48:18;;;;;;;6.32;1.27;;;;;;;;;;6184846;23;20396;-69
2023/09/16 02:50:46;;;;;;;2.95;0.90;;;;;;;;;;6184739;23;20080;-69
2023/09/16 02:53:13;;;;;;;1.88;0.93;;;;;;;;;;6184367;23;20654;-69
2023/09/16 02:55:39;;;;;;;2.45;1.10;;;;;;;;;;6184745;23;20068;-68
2023/09/16 02:58:06;;;;;;;1.75;1.00;;;;;;;;;;6184611;23;20101;-68
2023/09/16 03:00:33;;;;;;;4.25;0.90;;;;;;;;;;6184686;23;20072;-68
2023/09/16 03:02:59;;;;;;;3.25;1.10;;;;;;;;;;6184707;23;20076;-68
2023/09/16 03:05:25;;;;;;;1.67;1.05;;;;;;;;;;6184011;23;20072;-68
2023/09/16 03:07:51;;;;;;;2.65;0.95;;;;;;;;;;6184663;23;20076;-69
2023/09/16 03:10:18;;;;;;;3.70;1.40;;;;;;;;;;6184537;23;20072;-68
2023/09/16 03:12:44;;;;;;;7.75;1.10;;;;;;;;;;6184539;23;20075;-68
2023/09/16 03:15:11;;;;;;;8.00;1.20;;;;;;;;;;6184412;23;20072;-69
2023/09/16 03:17:37;;;;;;;5.25;1.10;;;;;;;;;;6184591;23;20516;-69
2023/09/16 03:20:04;;;;;;;2.63;0.88;;;;;;;;;;6184006;23;20106;-68
2023/09/16 03:22:30;;;;;;;2.13;1.10;;;;;;;;;;6184438;23;20124;-68
2023/09/16 03:24:57;;;;;;;2.58;0.98;;;;;;;;;;6184260;23;20163;-69
2023/09/16 03:27:23;;;;;;;4.68;1.08;;;;;;;;;;6184445;23;20084;-69
2023/09/16 03:29:49;;;;;;;3.22;1.17;;;;;;;;;;6184549;23;20072;-69
2023/09/16 03:32:15;;;;;;;3.13;1.10;;;;;;;;;;6184568;23;20072;-69
2023/09/16 03:34:42;;;;;;;1.77;0.80;;;;;;;;;;6157510;23;20080;-69
2023/09/16 03:37:08;;;;;;;1.55;1.00;;;;;;;;;;6184522;23;20396;-69
2023/09/16 03:39:34;;;;;;;2.90;0.82;;;;;;;;;;6184430;23;20103;-69
2023/09/16 03:42:02;;;;;;;1.55;0.60;;;;;;;;;;6184450;23;20084;-69
2023/09/16 03:44:28;;;;;;;2.25;1.00;;;;;;;;;;6158176;23;20060;-68
2023/09/16 03:46:55;;;;;;;1.98;0.77;;;;;;;;;;6184356;23;20128;-69
2023/09/16 03:49:21;;;;;;;0.90;0.75;;;;;;;;;;6184031;23;20064;-69
2023/09/16 03:51:47;;;;;;;1.30;0.75;;;;;;;;;;6184383;23;20064;-69
2023/09/16 03:54:13;;;;;;;1.10;0.70;;;;;;;;;;6184413;23;20076;-69
2023/09/16 03:56:40;;;;;;;2.45;1.02;;;;;;;;;;6158050;23;20080;-69
2023/09/16 03:59:06;;;;;;;2.65;1.30;;;;;;;;;;6184304;23;20084;-68
2023/09/16 04:01:33;;;;;;;2.13;1.55;;;;;;;;;;6133519;23;20092;-69
2023/09/16 04:04:00;;;;;;;2.50;1.50;;;;;;;;;;6183899;23;20065;-69
2023/09/16 04:06:26;;;;;;;2.90;1.35;;;;;;;;;;6184328;23;20077;-69
2023/09/16 04:08:54;;;;;;;4.13;1.40;;;;;;;;;;6184334;23;20076;-69
2023/09/16 04:11:21;;;;;;;3.13;1.63;;;;;;;;;;6184235;23;20071;-68
2023/09/16 04:13:47;;;;;;;3.35;1.77;;;;;;;;;;6184233;23;20068;-68
2023/09/16 04:16:14;;;;;;;2.97;1.60;;;;;;;;;;6185057;23;20084;-69
2023/09/16 04:18:41;;;;;;;5.80;1.60;;;;;;;;;;6185751;23;20123;-69
2023/09/16 04:21:07;;;;;;;3.13;1.60;;;;;;;;;;6186141;23;20420;-69
2023/09/16 04:23:36;;;;;;;2.40;1.75;;;;;;;;;;6185824;23;20080;-69
2023/09/16 04:26:03;;;;;;;2.75;1.63;;;;;;;;;;6186220;23;20092;-69
2023/09/16 04:28:29;;;;;;;2.78;1.55;;;;;;;;;;6186096;23;20492;-69
2023/09/16 04:30:56;;;;;;;8.52;1.95;;;;;;;;;;6159831;23;20384;-68
2023/09/16 04:33:22;;;;;;;3.25;1.95;;;;;;;;;;6185579;23;20440;-69
2023/09/16 04:35:50;;;;;;;6.03;1.88;;;;;;;;;;6159565;23;20084;-69
2023/09/16 04:38:16;;;;;;;4.90;1.73;;;;;;;;;;6186105;23;20488;-69
2023/09/16 04:40:43;;;;;;;3.65;1.80;;;;;;;;;;6186092;23;20104;-69
2023/09/16 04:43:12;;;;;;;5.32;2.20;;;;;;;;;;6185900;23;20387;-69
2023/09/16 04:45:39;;;;;;;3.63;1.90;;;;;;;;;;6185829;23;20076;-69
2023/09/16 04:48:05;;;;;;;4.78;1.80;;;;;;;;;;6185397;23;20076;-68
2023/09/16 04:50:32;;;;;;;13.40;1.83;;;;;;;;;;6185949;23;20464;-68
2023/09/16 04:52:58;;;;;;;3.22;1.75;;;;;;;;;;6186306;23;20068;-69
2023/09/16 04:55:25;;;;;;;4.70;2.10;;;;;;;;;;6185794;23;20083;-68
2023/09/16 04:57:51;;;;;;;3.90;1.73;;;;;;;;;;6159401;23;20076;-69
2023/09/16 05:00:18;;;;;;;4.65;2.05;;;;;;;;;;6185688;23;20076;-69
2023/09/16 05:02:50;;;;;;;4.35;1.98;;;;;;;;;;6185252;23;20155;-69
2023/09/16 05:05:18;;;;;;;4.40;2.17;;;;;;;;;;6159677;23;20072;-69
2023/09/16 05:07:44;;;;;;;4.55;2.05;;;;;;;;;;6185772;23;20568;-69
2023/09/16 05:10:14;;;;;;;5.20;2.65;;;;;;;;;;6185672;23;20076;-68
2023/09/16 05:12:41;;;;;;;6.40;2.67;;;;;;;;;;6185375;23;20430;-69
2023/09/16 05:15:08;;;;;;;6.50;2.70;;;;;;;;;;6185591;23;20488;-69
2023/09/16 05:17:36;;;;;;;9.48;2.83;;;;;;;;;;6185240;23;20358;-69
2023/09/16 05:20:03;;;;;;;4.30;2.53;;;;;;;;;;6159148;23;20088;-69
2023/09/16 05:22:30;;;;;;;4.50;2.25;;;;;;;;;;6185526;23;20096;-69
2023/09/16 05:24:56;;;;;;;4.18;2.53;;;;;;;;;;6185323;23;20508;-68
2023/09/16 05:27:22;;;;;;;6.78;2.75;;;;;;;;;;6159046;23;20092;-69
2023/09/16 05:29:54;;;;;;;5.25;3.17;;;;;;;;;;6185513;23;20107;-69
2023/09/16 05:32:20;;;;;;;7.57;2.95;;;;;;;;;;6185228;23;20080;-69
2023/09/16 05:34:47;;;;;;;6.32;3.03;;;;;;;;;;6185367;23;20076;-69
2023/09/16 05:37:13;;;;;;;6.15;2.95;;;;;;;;;;6185507;23;20124;-69
2023/09/16 05:39:39;;;;;;;6.15;2.70;;;;;;;;;;6185528;23;20408;-69
2023/09/16 05:42:06;;;;;;;7.63;2.88;;;;;;;;;;6185280;23;20092;-69
2023/09/16 05:44:32;;;;;;;5.72;3.05;;;;;;;;;;6159058;23;20430;-69
2023/09/16 05:46:59;;;;;;;5.22;3.00;;;;;;;;;;6185317;23;20076;-69
2023/09/16 05:49:25;;;;;;;4.35;2.85;;;;;;;;;;6185246;23;20401;-69
2023/09/16 05:51:52;;;;;;;5.25;2.95;;;;;;;;;;6185357;23;20068;-69
2023/09/16 05:54:18;;;;;;;11.13;3.08;;;;;;;;;;6158917;23;20399;-69
2023/09/16 05:56:46;;;;;;;4.50;2.83;;;;;;;;;;6185254;23;20068;-69
2023/09/16 05:59:16;;;;;;;7.90;2.70;;;;;;;;;;6158938;23;20076;-68
2023/09/16 06:01:42;;;;;;;3.78;2.60;;;;;;;;;;6184722;23;20084;-69
2023/09/16 06:04:08;;;;;;;6.72;2.60;;;;;;;;;;6185130;23;20088;-69
2023/09/16 06:06:36;;;;;;;5.40;2.90;;;;;;;;;;6185113;23;20077;-69
2023/09/16 06:09:05;;;;;;;7.38;3.00;;;;;;;;;;6185338;23;20077;-69
2023/09/16 06:11:31;;;;;;;4.13;2.88;;;;;;;;;;6185251;23;20390;-69
2023/09/16 06:13:58;;;;;;;5.07;3.10;;;;;;;;;;6184584;23;20476;-69
2023/09/16 06:16:24;;;;;;;2.70;2.10;;;;;;;;;;6185178;23;20123;-69
2023/09/16 06:18:50;;;;;;;1.83;1.63;;;;;;;;;;6185091;23;20127;-69
2023/09/16 06:21:17;;;;;;;2.38;1.77;;;;;;;;;;6184951;23;20076;-69
2023/09/16 06:23:43;;;;;;;1.95;1.55;;;;;;;;;;6185119;23;20523;-69
2023/09/16 06:26:10;;;;;;;3.70;2.00;;;;;;;;;;6184896;23;20076;-69
2023/09/16 06:28:41;;;;;;;2.45;1.75;;;;;;;;;;6184516;23;20057;-69
2023/09/16 06:31:07;;;;;;;4.28;2.17;;;;;;;;;;6184909;23;20072;-69
2023/09/16 06:33:34;;;;;;;3.00;2.30;;;;;;;;;;6184860;23;20073;-69
2023/09/16 06:36:00;;;;;;;3.25;2.38;;;;;;;;;;6158790;23;20085;-69
2023/09/16 06:38:27;;;;;;;2.72;1.60;;;;;;;;;;6184706;23;20076;-69
2023/09/16 06:40:53;;;;;;;3.72;1.90;;;;;;;;;;6184961;23;20080;-68
2023/09/16 06:43:20;;;;;;;3.97;1.50;;;;;;;;;;6184382;23;20072;-69
2023/09/16 06:45:48;;;;;;;2.97;1.60;;;;;;;;;;6184751;23;20388;-69
2023/09/16 06:48:15;;;;;;;3.33;1.85;;;;;;;;;;6185065;23;20087;-69
2023/09/16 06:50:41;;;;;;;1.80;1.50;;;;;;;;;;6184708;23;20080;-69
2023/09/16 06:53:07;;;;;;;3.10;1.48;;;;;;;;;;6184754;23;20072;-69
2023/09/16 06:55:34;;;;;;;2.85;1.20;;;;;;;;;;6184608;23;20507;-69
2023/09/16 06:58:04;;;;;;;2.90;1.23;;;;;;;;;;6184146;23;20514;-69
2023/09/16 07:00:33;;;;;;;1.20;1.10;;;;;;;;;;6184711;23;20500;-69
2023/09/16 07:02:59;;;;;;;4.70;1.60;;;;;;;;;;6184654;23;20072;-68
2023/09/16 07:05:31;;;;;;;3.45;1.50;;;;;;;;;;6184600;23;20072;-69
2023/09/16 07:07:58;;;;;;;4.57;1.67;;;;;;;;;;6184497;23;20079;-69
2023/09/16 07:10:25;;;;;;;5.30;1.75;;;;;;;;;;6184635;23;20087;-69
2023/09/16 07:12:51;;;;;;;7.78;2.25;;;;;;;;;;6184163;23;20083;-69
2023/09/16 07:15:19;;;;;;;7.43;2.05;;;;;;;;;;6184496;23;20395;-69
2023/09/16 07:17:45;;;;;;;5.57;2.15;;;;;;;;;;6184644;23;20084;-69
2023/09/16 07:20:12;;;;;;;8.05;2.20;;;;;;;;;;6184440;23;20495;-69
2023/09/16 07:22:41;;;;;;;7.57;2.17;;;;;;;;;;6184388;23;20080;-68
2023/09/16 07:25:07;;;;;;;6.18;2.58;;;;;;;;;;6184357;23;20138;-69
2023/09/16 07:27:34;;;;;;;10.00;2.50;;;;;;;;;;6184100;23;20095;-69
2023/09/16 07:30:00;;;;;;;6.80;2.33;;;;;;;;;;6158275;23;20068;-69
2023/09/16 07:32:27;;;;;;;12.75;2.58;;;;;;;;;;6184750;23;20089;-69
2023/09/16 07:34:54;;;;;;;7.00;2.35;;;;;;;;;;6184435;23;20065;-69
2023/09/16 07:37:20;;;;;;;12.32;2.38;;;;;;;;;;6184481;23;20076;-69
2023/09/16 07:39:47;;;;;;;11.65;2.17;;;;;;;;;;6184495;23;20068;-69
2023/09/16 07:42:14;;;;;;;12.63;2.00;;;;;;;;;;6184061;23;20084;-69
2023/09/16 07:44:41;;;;;;;8.40;1.52;;;;;;;;;;6184253;23;20076;-69
2023/09/16 07:47:07;;;;;;;7.70;1.70;;;;;;;;;;6184437;23;20080;-69
2023/09/16 07:49:33;;;;;;;9.88;1.45;;;;;;;;;;6184357;23;20093;-69
2023/09/16 07:52:00;;;;;;;11.35;1.83;;;;;;;;;;6185791;23;20080;-69
2023/09/16 07:54:26;;;;;;;8.48;1.48;;;;;;;;;;6186392;23;20515;-69
2023/09/16 07:56:52;;;;;;;7.90;1.33;;;;;;;;;;6185939;23;20080;-69
2023/09/16 07:59:20;;;;;;;11.48;2.10;;;;;;;;;;6186398;23;20076;-69
2023/09/16 08:01:47;;;;;;;11.07;1.63;;;;;;;;;;6186267;23;20405;-69
2023/09/16 08:04:13;;;;;;;7.40;1.88;;;;;;;;;;6186329;23;20081;-69
2023/09/16 08:06:39;;;;;;;14.00;1.52;;;;;;;;;;6186294;23;20068;-69
2023/09/16 08:09:06;;;;;;;7.30;1.67;;;;;;;;;;6186274;23;20484;-69
2023/09/16 08:11:32;;;;;;;12.20;1.75;;;;;;;;;;6185918;23;20068;-70
2023/09/16 08:13:59;;;;;;;6.80;1.48;;;;;;;;;;6186218;23;20503;-69
2023/09/16 08:16:25;;;;;;;7.55;1.60;;;;;;;;;;6186226;23;20480;-69
2023/09/16 08:18:51;;;;;;;7.63;1.70;;;;;;;;;;6186776;23;20080;-69
2023/09/16 08:21:18;;;;;;;9.50;2.10;;;;;;;;;;6185975;23;20012;-69
2023/09/16 08:23:44;;;;;;;9.35;2.00;;;;;;;;;;6186140;23;20088;-69
2023/09/16 08:26:10;;;;;;;5.57;2.00;;;;;;;;;;6185763;23;20527;-69
2023/09/16 08:28:37;;;;;;;7.35;1.90;;;;;;;;;;6186056;23;20065;-69
2023/09/16 08:31:04;;;;;;;6.60;2.10;;;;;;;;;;6186233;23;20369;-69
2023/09/16 08:33:30;;;;;;;5.47;1.80;;;;;;;;;;6186059;23;20476;-69
2023/09/16 08:35:56;;;;;;;13.00;2.15;;;;;;;;;;6185940;23;20076;-70
2023/09/16 08:38:23;;;;;;;8.63;2.17;;;;;;;;;;6186137;23;20064;-69
2023/09/16 08:40:54;;;;;;;8.20;2.22;;;;;;;;;;6185480;23;20407;-69
2023/09/16 08:43:31;;;;;;;6.90;2.13;;;;;;;;;;6185856;23;20072;-69
2023/09/16 08:46:01;;;;;;;6.97;2.05;;;;;;;;;;6185845;23;20072;-70
2023/09/16 08:48:31;;;;;;;8.05;2.30;;;;;;;;;;6185861;23;20084;-70
2023/09/16 08:50:58;;;;;;;4.82;1.98;;;;;;;;;;6185990;23;20072;-70
2023/09/16 08:53:25;;;;;;;8.15;2.45;;;;;;;;;;6185371;23;20084;-69
2023/09/16 08:55:55;;;;;;;4.40;1.92;;;;;;;;;;6159518;23;20519;-69
2023/09/16 08:58:21;;;;;;;7.22;2.22;;;;;;;;;;6160354;23;20072;-69
2023/09/16 09:00:48;;;;;;;5.05;2.00;;;;;;;;;;6185681;23;20102;-69
2023/09/16 09:03:14;;;;;;;7.18;2.70;;;;;;;;;;6185459;23;20077;-69
2023/09/16 09:05:42;;;;;;;8.00;2.40;;;;;;;;;;6185841;23;20093;-69
2023/09/16 09:08:11;;;;;;;6.25;2.17;;;;;;;;;;6185314;23;20070;-69
2023/09/16 09:10:38;;;;;;;5.45;1.70;;;;;;;;;;6185634;23;20072;-68
2023/09/16 09:13:06;;;;;;;5.63;2.20;;;;;;;;;;6185707;23;20069;-70
2023/09/16 09:15:33;;;;;;;4.50;1.77;;;;;;;;;;6159389;23;20072;-70
2023/09/16 09:17:59;;;;;;;6.93;2.20;;;;;;;;;;6185616;23;20071;-70
2023/09/16 09:20:29;;;;;;;3.50;1.60;;;;;;;;;;6185625;23;20510;-70
2023/09/16 09:22:56;;;;;;;5.75;1.75;;;;;;;;;;6184963;23;22325;-70
2023/09/16 09:25:23;;;;;;;4.18;1.60;;;;;;;;;;6185539;23;20067;-70
2023/09/16 09:27:50;;;;;;;2.55;1.50;;;;;;;;;;6185407;23;20072;-70
2023/09/16 09:30:19;;;;;;;3.05;1.40;;;;;;;;;;6185601;23;20077;-69
2023/09/16 09:32:46;;;;;;;3.15;1.42;;;;;;;;;;6185740;23;20076;-70
2023/09/16 09:35:12;;;;;;;2.95;1.58;;;;;;;;;;6185351;23;20530;-69
2023/09/16 09:37:39;;;;;;;2.05;1.25;;;;;;;;;;6185130;23;20515;-70
2023/09/16 09:40:07;;;;;;;2.88;1.65;;;;;;;;;;6185287;23;20077;-69
2023/09/16 09:42:33;;;;;;;1.67;1.10;;;;;;;;;;6185423;23;20120;-70
2023/09/16 09:45:03;;;;;;;2.97;1.50;;;;;;;;;;6185275;23;20064;-70
2023/09/16 09:47:30;;;;;;;5.43;1.80;;;;;;;;;;6185450;23;20072;-70
2023/09/16 09:49:57;;;;;;;2.75;1.40;;;;;;;;;;6185397;23;20072;-70
2023/09/16 09:52:23;;;;;;;2.05;1.42;;;;;;;;;;6185045;23;20112;-69
2023/09/16 09:54:55;;;;;;;2.38;1.42;;;;;;;;;;6185329;23;20084;-68
2023/09/16 09:57:22;;;;;;;2.05;1.23;;;;;;;;;;6185155;23;20064;-69
2023/09/16 09:59:48;;;;;;;2.10;0.90;;;;;;;;;;6158831;23;20084;-67
2023/09/16 10:02:15;;;;;;;1.25;0.98;;;;;;;;;;6185193;23;20104;-67
2023/09/16 10:04:41;;;;;;;0.75;0.70;;;;;;;;;;6184881;23;20511;-67
2023/09/16 10:07:08;;;;;;;2.15;0.90;;;;;;;;;;6184775;23;20057;-67
2023/09/16 10:09:34;;;;;;;0.90;0.75;;;;;;;;;;6185144;23;20072;-70
2023/09/16 10:12:01;;;;;;;1.92;0.93;;;;;;;;;;6185002;23;20084;-69
2023/09/16 10:14:28;;;;;;;1.10;0.90;;;;;;;;;;6184659;23;20060;-68
2023/09/16 10:16:54;;;;;;;1.60;0.95;;;;;;;;;;6185031;23;20100;-68
2023/09/16 10:19:21;;;;;;;0.82;0.80;;;;;;;;;;6185251;23;20088;-67
2023/09/16 10:21:47;;;;;;;2.35;1.08;;;;;;;;;;6158228;23;20085;-70
2023/09/16 10:24:14;;;;;;;1.55;1.13;;;;;;;;;;6184889;23;20080;-68
2023/09/16 10:26:40;;;;;;;1.88;0.70;;;;;;;;;;6185025;23;20084;-68
2023/09/16 10:29:07;;;;;;;0.70;0.70;;;;;;;;;;6184906;23;20076;-70
2023/09/16 10:31:35;;;;;;;1.42;0.90;;;;;;;;;;6184900;23;20435;-70
2023/09/16 10:34:02;;;;;;;7.70;0.80;;;;;;;;;;6184837;23;20079;-70
2023/09/16 10:36:28;;;;;;;0.80;0.77;;;;;;;;;;6158074;23;20093;-70
2023/09/16 10:38:55;;;;;;;1.63;0.90;;;;;;;;;;6184895;23;20088;-70
2023/09/16 10:41:22;;;;;;;0.88;0.65;;;;;;;;;;6184745;23;20084;-68
2023/09/16 10:43:51;;;;;;;6.90;0.95;;;;;;;;;;6184753;23;20068;-68
2023/09/16 10:46:21;;;;;;;1.00;0.73;;;;;;;;;;6184745;23;20076;-70
2023/09/16 10:48:48;;;;;;;2.95;0.95;;;;;;;;;;6184784;23;20430;-70
2023/09/16 10:51:23;;;;;;;1.05;0.90;;;;;;;;;;6184369;23;20123;-70
2023/09/16 10:53:59;;;;;;;4.63;1.10;;;;;;;;;;6184713;23;20072;-70
2023/09/16 10:56:28;;;;;;;2.88;1.10;;;;;;;;;;6184766;23;20076;-70
2023/09/16 10:59:02;;;;;;;1.05;0.70;;;;;;;;;;6184820;23;20075;-69
2023/09/16 11:01:36;;;;;;;1.42;0.90;;;;;;;;;;6184580;23;20515;-69
2023/09/16 11:04:13;;;;;;;0.68;0.65;;;;;;;;;;6184200;23;20068;-69
2023/09/16 11:06:39;;;;;;;3.17;1.20;;;;;;;;;;6184572;23;20081;-70
2023/09/16 11:09:05;;;;;;;0.95;0.90;;;;;;;;;;6184670;23;20064;-70
2023/09/16 11:11:33;;;;;;;1.25;0.98;;;;;;;;;;6184719;23;20519;-69
2023/09/16 11:13:59;;;;;;;1.30;1.00;;;;;;;;;;6184432;23;20079;-70
2023/09/16 11:16:26;;;;;;;1.05;0.95;;;;;;;;;;6184641;23;20064;-70
2023/09/16 11:18:52;;;;;;;1.23;1.05;;;;;;;;;;6184260;23;20080;-70
2023/09/16 11:21:20;;;;;;;1.90;1.20;;;;;;;;;;6184441;23;20084;-70
2023/09/16 11:23:48;;;;;;;1.42;1.00;;;;;;;;;;6184364;23;20087;-71
2023/09/16 11:26:21;;;;;;;1.25;0.85;;;;;;;;;;6184318;23;20447;-71
2023/09/16 11:28:48;;;;;;;1.50;1.20;;;;;;;;;;6184483;23;20073;-70
2023/09/16 11:31:14;;;;;;;2.30;1.00;;;;;;;;;;6184529;23;20507;-71
2023/09/16 11:33:40;;;;;;;4.10;1.20;;;;;;;;;;6184091;23;20072;-70
2023/09/16 11:36:12;;;;;;;1.35;1.10;;;;;;;;;;6133680;23;20097;-70
2023/09/16 11:38:39;;;;;;;1.30;1.20;;;;;;;;;;6184356;23;20492;-70
2023/09/16 11:41:09;;;;;;;1.88;1.30;;;;;;;;;;6184430;23;20084;-71
2023/09/16 11:43:36;;;;;;;3.42;1.42;;;;;;;;;;6184639;23;20076;-71
2023/09/16 11:46:03;;;;;;;2.53;1.45;;;;;;;;;;6184463;23;20079;-70
2023/09/16 11:48:36;;;;;;;1.58;1.30;;;;;;;;;;6183928;23;20077;-71
2023/09/16 11:51:02;;;;;;;2.33;1.40;;;;;;;;;;6184581;23;20487;-70
2023/09/16 11:53:28;;;;;;;3.38;1.55;;;;;;;;;;6158108;23;20440;-71
2023/09/16 11:55:55;;;;;;;2.33;1.30;;;;;;;;;;6184577;23;20088;-71
2023/09/16 11:58:21;;;;;;;2.75;1.63;;;;;;;;;;6184464;23;20068;-70
2023/09/16 12:00:48;;;;;;;2.05;1.30;;;;;;;;;;6184143;23;20080;-70
2023/09/16 12:03:15;;;;;;;1.63;1.40;;;;;;;;;;6183924;23;20084;-71
2023/09/16 12:05:41;;;;;;;2.05;1.45;;;;;;;;;;6158186;23;20083;-70
2023/09/16 12:08:07;;;;;;;3.15;1.40;;;;;;;;;;6184283;23;20068;-71
2023/09/16 12:10:34;;;;;;;3.20;1.38;;;;;;;;;;6184344;23;20080;-70
2023/09/16 12:13:00;;;;;;;2.28;1.50;;;;;;;;;;6184264;23;20068;-70
2023/09/16 12:15:27;;;;;;;3.38;1.63;;;;;;;;;;6184258;23;20077;-71
2023/09/16 12:17:54;;;;;;;2.83;1.40;;;;;;;;;;6183918;23;20072;-70
2023/09/16 12:20:20;;;;;;;3.42;1.63;;;;;;;;;;6184247;23;20079;-70
2023/09/16 12:22:48;;;;;;;2.65;1.58;;;;;;;;;;6183937;23;20068;-69
2023/09/16 12:25:16;;;;;;;5.43;1.70;;;;;;;;;;6184219;23;20071;-70
2023/09/16 12:27:42;;;;;;;2.63;1.42;;;;;;;;;;6184205;23;20076;-70
2023/09/16 12:30:08;;;;;;;1.55;1.30;;;;;;;;;;6184295;23;20515;-70
2023/09/16 12:32:35;;;;;;;3.58;1.10;;;;;;;;;;6157434;23;20064;-71
2023/09/16 12:35:10;;;;;;;1.20;1.05;;;;;;;;;;6184273;23;20076;-70
2023/09/16 12:37:39;;;;;;;2.15;1.00;;;;;;;;;;6184939;23;20060;-70
2023/09/16 12:40:05;;;;;;;2.85;1.20;;;;;;;;;;6159761;23;20084;-71
2023/09/16 12:42:32;;;;;;;2.63;1.10;;;;;;;;;;6185953;23;20076;-70
2023/09/16 12:44:59;;;;;;;2.75;1.15;;;;;;;;;;6186021;23;20130;-69
2023/09/16 12:47:26;;;;;;;1.60;1.10;;;;;;;;;;6159244;23;20443;-68
2023/09/16 12:49:52;;;;;;;1.77;1.10;;;;;;;;;;6185813;23;20519;-68
2023/09/16 12:52:19;;;;;;;1.55;1.00;;;;;;;;;;6185954;23;20104;-69
2023/09/16 12:54:46;;;;;;;0.77;0.77;;;;;;;;;;6185736;23;20076;-69
2023/09/16 12:57:16;;;;;;;2.10;1.13;;;;;;;;;;6159417;23;20084;-68
2023/09/16 12:59:46;;;;;;;3.05;1.15;;;;;;;;;;6185894;23;20400;-68
2023/09/16 13:02:12;;;;;;;1.30;1.10;;;;;;;;;;6185282;23;20080;-68
2023/09/16 13:04:39;;;;;;;2.47;1.33;;;;;;;;;;6185767;23;20072;-70
2023/09/16 13:07:05;;;;;;;1.70;1.27;;;;;;;;;;6185853;23;20507;-71
2023/09/16 13:09:31;;;;;;;2.28;1.30;;;;;;;;;;6185651;23;20076;-71
2023/09/16 13:11:58;;;;;;;1.92;1.50;;;;;;;;;;6185779;23;20088;-71
2023/09/16 13:14:26;;;;;;;4.20;1.67;;;;;;;;;;6185247;23;20076;-70
2023/09/16 13:16:52;;;;;;;1.63;1.20;;;;;;;;;;6185770;23;20076;-70
2023/09/16 13:19:22;;;;;;;2.85;1.60;;;;;;;;;;6185622;23;20440;-68
2023/09/16 13:21:49;;;;;;;1.92;1.38;;;;;;;;;;6185506;23;20084;-69
2023/09/16 13:24:15;;;;;;;2.10;1.30;;;;;;;;;;6185567;23;20119;-68
2023/09/16 13:26:48;;;;;;;2.05;1.42;;;;;;;;;;6185388;23;20083;-68
2023/09/16 13:29:15;;;;;;;2.17;1.40;;;;;;;;;;6185201;23;20077;-71
2023/09/16 13:31:41;;;;;;;1.95;1.38;;;;;;;;;;6185431;23;20399;-70
2023/09/16 13:34:09;;;;;;;3.22;1.25;;;;;;;;;;6185537;23;20077;-70
2023/09/16 13:36:40;;;;;;;1.58;1.10;;;;;;;;;;6185843;23;20080;-71
2023/09/16 13:39:10;;;;;;;1.38;1.27;;;;;;;;;;6185457;23;20076;-70
2023/09/16 13:41:36;;;;;;;2.60;1.30;;;;;;;;;;6185489;23;20092;-70
2023/09/16 13:44:02;;;;;;;1.25;1.10;;;;;;;;;;6184784;23;20300;-70
2023/09/16 13:46:29;;;;;;;1.30;1.20;;;;;;;;;;6185414;23;20067;-69
2023/09/16 13:48:55;;;;;;;3.50;1.10;;;;;;;;;;6184779;23;20084;-70
2023/09/16 13:51:22;;;;;;;1.77;0.88;;;;;;;;;;6185495;23;20077;-70
2023/09/16 13:53:50;;;;;;;4.30;0.90;;;;;;;;;;6134347;23;20503;-70
2023/09/16 13:56:19;;;;;;;1.10;1.00;;;;;;;;;;6185289;23;20379;-70
2023/09/16 13:58:45;;;;;;;1.20;0.95;;;;;;;;;;6184868;23;20079;-71
2023/09/16 14:01:11;;;;;;;2.28;1.13;;;;;;;;;;6185064;23;20072;-70
2023/09/16 14:03:38;;;;;;;4.03;1.02;;;;;;;;;;6185189;23;20116;-71
2023/09/16 14:06:04;;;;;;;1.38;1.20;;;;;;;;;;6185226;23;20077;-71
2023/09/16 14:08:30;;;;;;;1.95;1.38;;;;;;;;;;6185129;23;20067;-70
2023/09/16 14:10:57;;;;;;;2.03;1.25;;;;;;;;;;6185455;23;20080;-71
2023/09/16 14:13:23;;;;;;;3.72;0.80;;;;;;;;;;6184635;23;20075;-70
2023/09/16 14:15:50;;;;;;;2.25;1.10;;;;;;;;;;6185091;23;20081;-71
2023/09/16 14:18:16;;;;;;;1.23;1.00;;;;;;;;;;6185009;23;20116;-71
2023/09/16 14:20:42;;;;;;;1.13;0.98;;;;;;;;;;6184849;23;20068;-71
2023/09/16 14:23:09;;;;;;;1.20;0.80;;;;;;;;;;6184883;23;20084;-71
2023/09/16 14:25:35;;;;;;;3.83;0.90;;;;;;;;;;6185034;23;20076;-70
2023/09/16 14:28:02;;;;;;;1.25;1.00;;;;;;;;;;6184489;23;20131;-70
2023/09/16 14:30:30;;;;;;;0.70;0.70;;;;;;;;;;6158660;23;20383;-70
2023/09/16 14:32:56;;;;;;;2.00;0.80;;;;;;;;;;6184791;23;20083;-70
2023/09/16 14:35:22;;;;;;;2.30;0.80;;;;;;;;;;6184953;23;20064;-70
2023/09/16 14:37:51;;;;;;;0.80;0.75;;;;;;;;;;6184825;23;20085;-71
2023/09/16 14:40:17;;;;;;;0.68;0.60;;;;;;;;;;6184949;23;20449;-70
2023/09/16 14:42:44;;;;;;;0.70;0.70;;;;;;;;;;6184355;23;20084;-70